sensor_id;sensor_type;location;lat;lon;timestamp;P1;durP1;ratioP1;P2;durP2;ratioP2
12947;SDS011;6539;49.476;8.484;2022-09-03T00:00:51;1.23;;;1.13;;
12947;SDS011;6539;49.476;8.484;2022-09-03T00:06:17;1.57;;;1.17;;
12947;SDS011;6539;49.476;8.484;2022-09-03T00:09:28;3.77;;;1.60;;
12947;SDS011;6539;49.476;8.484;2022-09-03T00:12:08;3.13;;;1.27;;
12947;SDS011;6539;49.476;8.484;2022-09-03T00:17:29;2.10;;;1.50;;
12947;SDS011;6539;49.476;8.484;2022-09-03T00:23:05;2.57;;;1.57;;
12947;SDS011;6539;49.476;8.484;2022-09-03T00:25:42;1.20;;;1.10;;
12947;SDS011;6539;49.476;8.484;2022-09-03T00:29:01;1.70;;;1.40;;
12947;SDS011;6539;49.476;8.484;2022-09-03T00:34:05;1.50;;;1.23;;
12947;SDS011;6539;49.476;8.484;2022-09-03T00:36:44;1.30;;;1.20;;
12947;SDS011;6539;49.476;8.484;2022-09-03T00:39:12;2.03;;;1.30;;
12947;SDS011;6539;49.476;8.484;2022-09-03T00:45:17;2.57;;;1.17;;
12947;SDS011;6539;49.476;8.484;2022-09-03T00:53:43;2.23;;;1.30;;
12947;SDS011;6539;49.476;8.484;2022-09-03T01:05:07;3.40;;;1.30;;
12947;SDS011;6539;49.476;8.484;2022-09-03T01:13:37;1.57;;;1.10;;
12947;SDS011;6539;49.476;8.484;2022-09-03T01:16:31;2.47;;;1.50;;
12947;SDS011;6539;49.476;8.484;2022-09-03T01:37:11;2.73;;;1.30;;
12947;SDS011;6539;49.476;8.484;2022-09-03T01:45:52;1.40;;;1.30;;
12947;SDS011;6539;49.476;8.484;2022-09-03T01:48:39;1.83;;;1.33;;
12947;SDS011;6539;49.476;8.484;2022-09-03T01:51:25;1.40;;;1.30;;
12947;SDS011;6539;49.476;8.484;2022-09-03T02:02:37;2.43;;;1.40;;
12947;SDS011;6539;49.476;8.484;2022-09-03T02:05:12;1.53;;;1.30;;
12947;SDS011;6539;49.476;8.484;2022-09-03T02:13:11;1.37;;;1.27;;
12947;SDS011;6539;49.476;8.484;2022-09-03T02:15:46;3.33;;;1.30;;
12947;SDS011;6539;49.476;8.484;2022-09-03T02:18:20;2.20;;;1.30;;
12947;SDS011;6539;49.476;8.484;2022-09-03T02:20:55;2.07;;;1.60;;
12947;SDS011;6539;49.476;8.484;2022-09-03T02:23:25;3.10;;;1.40;;
12947;SDS011;6539;49.476;8.484;2022-09-03T02:25:56;1.87;;;1.20;;
12947;SDS011;6539;49.476;8.484;2022-09-03T02:28:29;3.53;;;1.23;;
12947;SDS011;6539;49.476;8.484;2022-09-03T02:30:57;1.95;;;1.40;;
12947;SDS011;6539;49.476;8.484;2022-09-03T02:33:27;2.50;;;1.43;;
12947;SDS011;6539;49.476;8.484;2022-09-03T02:36:06;1.50;;;1.40;;
12947;SDS011;6539;49.476;8.484;2022-09-03T02:38:35;1.73;;;1.30;;
12947;SDS011;6539;49.476;8.484;2022-09-03T02:41:03;2.50;;;1.53;;
12947;SDS011;6539;49.476;8.484;2022-09-03T02:43:32;4.27;;;1.60;;
12947;SDS011;6539;49.476;8.484;2022-09-03T02:46:46;2.63;;;1.90;;
12947;SDS011;6539;49.476;8.484;2022-09-03T02:49:20;1.97;;;1.80;;
12947;SDS011;6539;49.476;8.484;2022-09-03T02:51:46;2.67;;;2.00;;
12947;SDS011;6539;49.476;8.484;2022-09-03T02:54:14;3.20;;;1.90;;
12947;SDS011;6539;49.476;8.484;2022-09-03T02:56:40;1.80;;;1.70;;
12947;SDS011;6539;49.476;8.484;2022-09-03T02:59:06;3.77;;;1.80;;
12947;SDS011;6539;49.476;8.484;2022-09-03T03:01:36;4.27;;;1.80;;
12947;SDS011;6539;49.476;8.484;2022-09-03T03:04:02;2.17;;;1.80;;
12947;SDS011;6539;49.476;8.484;2022-09-03T03:06:28;2.10;;;1.90;;
12947;SDS011;6539;49.476;8.484;2022-09-03T03:08:53;2.13;;;1.80;;
12947;SDS011;6539;49.476;8.484;2022-09-03T03:11:25;3.07;;;1.50;;
12947;SDS011;6539;49.476;8.484;2022-09-03T03:13:51;3.43;;;2.00;;
12947;SDS011;6539;49.476;8.484;2022-09-03T03:16:17;3.40;;;2.10;;
12947;SDS011;6539;49.476;8.484;2022-09-03T03:18:43;7.23;;;2.10;;
12947;SDS011;6539;49.476;8.484;2022-09-03T03:21:15;2.43;;;1.90;;
12947;SDS011;6539;49.476;8.484;2022-09-03T03:23:45;1.97;;;1.70;;
12947;SDS011;6539;49.476;8.484;2022-09-03T03:26:12;4.10;;;1.80;;
12947;SDS011;6539;49.476;8.484;2022-09-03T03:28:43;1.30;;;1.20;;
12947;SDS011;6539;49.476;8.484;2022-09-03T03:31:18;4.50;;;1.73;;
12947;SDS011;6539;49.476;8.484;2022-09-03T03:33:50;3.10;;;1.40;;
12947;SDS011;6539;49.476;8.484;2022-09-03T03:36:22;2.37;;;1.30;;
12947;SDS011;6539;49.476;8.484;2022-09-03T03:38:53;1.20;;;1.10;;
12947;SDS011;6539;49.476;8.484;2022-09-03T03:41:23;1.67;;;1.40;;
12947;SDS011;6539;49.476;8.484;2022-09-03T03:43:53;2.47;;;1.50;;
12947;SDS011;6539;49.476;8.484;2022-09-03T03:46:22;2.03;;;1.50;;
12947;SDS011;6539;49.476;8.484;2022-09-03T03:48:49;2.37;;;1.50;;
12947;SDS011;6539;49.476;8.484;2022-09-03T03:51:21;2.23;;;1.50;;
12947;SDS011;6539;49.476;8.484;2022-09-03T03:53:47;2.13;;;1.37;;
12947;SDS011;6539;49.476;8.484;2022-09-03T03:56:14;2.43;;;1.53;;
12947;SDS011;6539;49.476;8.484;2022-09-03T03:58:42;2.77;;;1.60;;
12947;SDS011;6539;49.476;8.484;2022-09-03T04:01:13;2.60;;;1.50;;
12947;SDS011;6539;49.476;8.484;2022-09-03T04:03:43;1.50;;;1.40;;
12947;SDS011;6539;49.476;8.484;2022-09-03T04:06:13;2.83;;;1.50;;
12947;SDS011;6539;49.476;8.484;2022-09-03T04:08:42;1.97;;;1.43;;
12947;SDS011;6539;49.476;8.484;2022-09-03T04:11:13;2.57;;;1.60;;
12947;SDS011;6539;49.476;8.484;2022-09-03T04:13:45;3.47;;;1.23;;
12947;SDS011;6539;49.476;8.484;2022-09-03T04:16:18;2.53;;;1.63;;
12947;SDS011;6539;49.476;8.484;2022-09-03T04:18:49;2.60;;;1.30;;
12947;SDS011;6539;49.476;8.484;2022-09-03T04:21:18;3.00;;;1.27;;
12947;SDS011;6539;49.476;8.484;2022-09-03T04:23:50;1.63;;;1.50;;
12947;SDS011;6539;49.476;8.484;2022-09-03T04:26:20;2.07;;;1.40;;
12947;SDS011;6539;49.476;8.484;2022-09-03T04:28:49;5.20;;;1.60;;
12947;SDS011;6539;49.476;8.484;2022-09-03T04:31:16;2.23;;;1.27;;
12947;SDS011;6539;49.476;8.484;2022-09-03T04:33:44;2.73;;;1.60;;
12947;SDS011;6539;49.476;8.484;2022-09-03T04:36:11;1.53;;;1.30;;
12947;SDS011;6539;49.476;8.484;2022-09-03T04:38:47;2.97;;;1.50;;
12947;SDS011;6539;49.476;8.484;2022-09-03T04:41:18;1.93;;;1.67;;
12947;SDS011;6539;49.476;8.484;2022-09-03T04:43:53;2.33;;;1.70;;
12947;SDS011;6539;49.476;8.484;2022-09-03T04:46:22;3.40;;;1.93;;
12947;SDS011;6539;49.476;8.484;2022-09-03T04:48:54;2.27;;;1.90;;
12947;SDS011;6539;49.476;8.484;2022-09-03T04:51:29;2.87;;;1.90;;
12947;SDS011;6539;49.476;8.484;2022-09-03T04:54:00;6.57;;;2.10;;
12947;SDS011;6539;49.476;8.484;2022-09-03T04:56:27;2.03;;;1.87;;
12947;SDS011;6539;49.476;8.484;2022-09-03T04:59:04;2.37;;;2.17;;
12947;SDS011;6539;49.476;8.484;2022-09-03T05:01:33;2.50;;;2.10;;
12947;SDS011;6539;49.476;8.484;2022-09-03T05:04:02;2.33;;;2.10;;
12947;SDS011;6539;49.476;8.484;2022-09-03T05:06:29;1.90;;;1.80;;
12947;SDS011;6539;49.476;8.484;2022-09-03T05:08:56;1.87;;;1.70;;
12947;SDS011;6539;49.476;8.484;2022-09-03T05:11:28;2.40;;;1.87;;
12947;SDS011;6539;49.476;8.484;2022-09-03T05:13:56;2.70;;;1.80;;
12947;SDS011;6539;49.476;8.484;2022-09-03T05:16:24;5.67;;;1.90;;
12947;SDS011;6539;49.476;8.484;2022-09-03T05:18:54;1.90;;;1.80;;
12947;SDS011;6539;49.476;8.484;2022-09-03T05:21:25;2.77;;;2.17;;
12947;SDS011;6539;49.476;8.484;2022-09-03T05:23:52;2.37;;;2.17;;
12947;SDS011;6539;49.476;8.484;2022-09-03T05:26:21;2.10;;;2.00;;
12947;SDS011;6539;49.476;8.484;2022-09-03T05:28:54;2.23;;;1.93;;
12947;SDS011;6539;49.476;8.484;2022-09-03T05:31:26;2.47;;;2.27;;
12947;SDS011;6539;49.476;8.484;2022-09-03T05:33:56;2.43;;;2.00;;
12947;SDS011;6539;49.476;8.484;2022-09-03T05:36:31;2.47;;;2.10;;
12947;SDS011;6539;49.476;8.484;2022-09-03T05:39:00;2.20;;;2.00;;
12947;SDS011;6539;49.476;8.484;2022-09-03T05:41:27;4.67;;;2.00;;
12947;SDS011;6539;49.476;8.484;2022-09-03T05:43:56;2.47;;;1.77;;
12947;SDS011;6539;49.476;8.484;2022-09-03T05:46:25;2.40;;;1.70;;
12947;SDS011;6539;49.476;8.484;2022-09-03T05:49:00;2.40;;;2.20;;
12947;SDS011;6539;49.476;8.484;2022-09-03T05:51:31;5.07;;;1.70;;
12947;SDS011;6539;49.476;8.484;2022-09-03T05:54:03;2.63;;;1.43;;
12947;SDS011;6539;49.476;8.484;2022-09-03T05:56:30;2.93;;;1.40;;
12947;SDS011;6539;49.476;8.484;2022-09-03T05:59:05;2.83;;;1.97;;
12947;SDS011;6539;49.476;8.484;2022-09-03T06:01:36;1.83;;;1.70;;
12947;SDS011;6539;49.476;8.484;2022-09-03T06:04:13;1.63;;;1.53;;
12947;SDS011;6539;49.476;8.484;2022-09-03T06:06:41;3.13;;;1.63;;
12947;SDS011;6539;49.476;8.484;2022-09-03T06:09:10;1.90;;;1.70;;
12947;SDS011;6539;49.476;8.484;2022-09-03T06:11:40;3.70;;;1.67;;
12947;SDS011;6539;49.476;8.484;2022-09-03T06:14:10;4.63;;;1.57;;
12947;SDS011;6539;49.476;8.484;2022-09-03T06:16:45;1.80;;;1.50;;
12947;SDS011;6539;49.476;8.484;2022-09-03T06:19:16;4.70;;;1.93;;
12947;SDS011;6539;49.476;8.484;2022-09-03T06:21:45;2.10;;;1.50;;
12947;SDS011;6539;49.476;8.484;2022-09-03T06:24:12;2.20;;;1.33;;
12947;SDS011;6539;49.476;8.484;2022-09-03T06:26:41;1.77;;;1.67;;
12947;SDS011;6539;49.476;8.484;2022-09-03T06:29:10;2.57;;;1.70;;
12947;SDS011;6539;49.476;8.484;2022-09-03T06:31:37;3.13;;;1.73;;
12947;SDS011;6539;49.476;8.484;2022-09-03T06:34:05;2.23;;;1.90;;
12947;SDS011;6539;49.476;8.484;2022-09-03T06:36:32;7.03;;;1.97;;
12947;SDS011;6539;49.476;8.484;2022-09-03T06:38:58;5.67;;;2.30;;
12947;SDS011;6539;49.476;8.484;2022-09-03T06:41:25;6.00;;;2.20;;
12947;SDS011;6539;49.476;8.484;2022-09-03T06:43:59;4.80;;;1.80;;
12947;SDS011;6539;49.476;8.484;2022-09-03T06:46:35;3.20;;;1.90;;
12947;SDS011;6539;49.476;8.484;2022-09-03T06:49:02;4.50;;;2.30;;
12947;SDS011;6539;49.476;8.484;2022-09-03T06:51:29;3.83;;;1.73;;
12947;SDS011;6539;49.476;8.484;2022-09-03T06:54:03;5.33;;;2.70;;
12947;SDS011;6539;49.476;8.484;2022-09-03T06:56:33;3.07;;;2.37;;
12947;SDS011;6539;49.476;8.484;2022-09-03T06:59:05;4.27;;;2.17;;
12947;SDS011;6539;49.476;8.484;2022-09-03T07:01:40;3.50;;;2.50;;
12947;SDS011;6539;49.476;8.484;2022-09-03T07:04:09;6.00;;;2.40;;
12947;SDS011;6539;49.476;8.484;2022-09-03T07:06:37;3.83;;;2.07;;
12947;SDS011;6539;49.476;8.484;2022-09-03T07:09:06;4.33;;;2.60;;
12947;SDS011;6539;49.476;8.484;2022-09-03T07:11:35;5.60;;;2.20;;
12947;SDS011;6539;49.476;8.484;2022-09-03T07:14:02;3.00;;;2.37;;
12947;SDS011;6539;49.476;8.484;2022-09-03T07:16:35;3.30;;;2.70;;
12947;SDS011;6539;49.476;8.484;2022-09-03T07:19:02;3.80;;;2.67;;
12947;SDS011;6539;49.476;8.484;2022-09-03T07:21:30;3.20;;;2.40;;
12947;SDS011;6539;49.476;8.484;2022-09-03T07:23:58;2.80;;;2.43;;
12947;SDS011;6539;49.476;8.484;2022-09-03T07:26:25;3.97;;;3.00;;
12947;SDS011;6539;49.476;8.484;2022-09-03T07:28:54;2.90;;;2.37;;
12947;SDS011;6539;49.476;8.484;2022-09-03T07:31:25;2.77;;;2.20;;
12947;SDS011;6539;49.476;8.484;2022-09-03T07:34:00;3.37;;;2.33;;
12947;SDS011;6539;49.476;8.484;2022-09-03T07:36:34;4.40;;;2.30;;
12947;SDS011;6539;49.476;8.484;2022-09-03T07:39:06;2.80;;;2.40;;
12947;SDS011;6539;49.476;8.484;2022-09-03T07:41:35;3.60;;;3.03;;
12947;SDS011;6539;49.476;8.484;2022-09-03T07:44:01;2.47;;;2.23;;
12947;SDS011;6539;49.476;8.484;2022-09-03T07:46:34;3.70;;;2.30;;
12947;SDS011;6539;49.476;8.484;2022-09-03T07:49:05;3.20;;;2.67;;
12947;SDS011;6539;49.476;8.484;2022-09-03T07:51:32;3.90;;;2.63;;
12947;SDS011;6539;49.476;8.484;2022-09-03T07:54:07;4.00;;;2.80;;
12947;SDS011;6539;49.476;8.484;2022-09-03T07:56:38;4.00;;;2.70;;
12947;SDS011;6539;49.476;8.484;2022-09-03T07:59:04;4.50;;;3.10;;
12947;SDS011;6539;49.476;8.484;2022-09-03T08:01:32;3.67;;;2.67;;
12947;SDS011;6539;49.476;8.484;2022-09-03T08:04:00;5.00;;;2.90;;
12947;SDS011;6539;49.476;8.484;2022-09-03T08:06:31;5.83;;;3.70;;
12947;SDS011;6539;49.476;8.484;2022-09-03T08:09:03;5.23;;;3.70;;
12947;SDS011;6539;49.476;8.484;2022-09-03T08:11:32;4.33;;;3.57;;
12947;SDS011;6539;49.476;8.484;2022-09-03T08:14:04;6.10;;;3.53;;
12947;SDS011;6539;49.476;8.484;2022-09-03T08:16:34;5.03;;;3.50;;
12947;SDS011;6539;49.476;8.484;2022-09-03T08:19:10;3.83;;;3.20;;
12947;SDS011;6539;49.476;8.484;2022-09-03T08:21:37;9.70;;;3.43;;
12947;SDS011;6539;49.476;8.484;2022-09-03T08:24:05;4.20;;;2.90;;
12947;SDS011;6539;49.476;8.484;2022-09-03T08:26:37;5.23;;;3.20;;
12947;SDS011;6539;49.476;8.484;2022-09-03T08:29:08;5.40;;;2.80;;
12947;SDS011;6539;49.476;8.484;2022-09-03T08:31:37;4.07;;;2.83;;
12947;SDS011;6539;49.476;8.484;2022-09-03T08:34:05;7.17;;;2.83;;
12947;SDS011;6539;49.476;8.484;2022-09-03T08:36:36;5.90;;;3.40;;
12947;SDS011;6539;49.476;8.484;2022-09-03T08:39:04;3.63;;;3.33;;
12947;SDS011;6539;49.476;8.484;2022-09-03T08:55:33;4.00;;;3.40;;
12947;SDS011;6539;49.476;8.484;2022-09-03T09:03:39;3.97;;;3.00;;
12947;SDS011;6539;49.476;8.484;2022-09-03T09:06:24;4.77;;;3.53;;
12947;SDS011;6539;49.476;8.484;2022-09-03T09:09:56;4.67;;;2.90;;
12947;SDS011;6539;49.476;8.484;2022-09-03T09:13:14;5.87;;;2.93;;
12947;SDS011;6539;49.476;8.484;2022-09-03T09:15:53;5.50;;;3.00;;
12947;SDS011;6539;49.476;8.484;2022-09-03T09:18:41;4.43;;;3.03;;
12947;SDS011;6539;49.476;8.484;2022-09-03T09:21:22;4.33;;;3.20;;
12947;SDS011;6539;49.476;8.484;2022-09-03T09:23:56;7.50;;;3.13;;
12947;SDS011;6539;49.476;8.484;2022-09-03T09:26:30;3.63;;;3.23;;
12947;SDS011;6539;49.476;8.484;2022-09-03T09:29:01;5.40;;;3.40;;
12947;SDS011;6539;49.476;8.484;2022-09-03T09:31:34;6.27;;;2.90;;
12947;SDS011;6539;49.476;8.484;2022-09-03T09:34:05;3.33;;;2.83;;
12947;SDS011;6539;49.476;8.484;2022-09-03T09:36:49;3.57;;;3.27;;
12947;SDS011;6539;49.476;8.484;2022-09-03T09:39:20;4.30;;;2.63;;
12947;SDS011;6539;49.476;8.484;2022-09-03T09:41:56;4.67;;;2.97;;
12947;SDS011;6539;49.476;8.484;2022-09-03T09:44:32;3.63;;;2.60;;
12947;SDS011;6539;49.476;8.484;2022-09-03T09:47:01;5.87;;;3.00;;
12947;SDS011;6539;49.476;8.484;2022-09-03T09:49:59;3.87;;;2.83;;
12947;SDS011;6539;49.476;8.484;2022-09-03T09:52:27;3.20;;;2.87;;
12947;SDS011;6539;49.476;8.484;2022-09-03T09:58:03;4.73;;;2.70;;
12947;SDS011;6539;49.476;8.484;2022-09-03T10:00:33;3.00;;;2.70;;
12947;SDS011;6539;49.476;8.484;2022-09-03T10:03:06;3.23;;;2.90;;
12947;SDS011;6539;49.476;8.484;2022-09-03T10:05:37;4.70;;;3.30;;
12947;SDS011;6539;49.476;8.484;2022-09-03T10:08:18;4.20;;;3.20;;
12947;SDS011;6539;49.476;8.484;2022-09-03T10:10:49;3.77;;;3.47;;
12947;SDS011;6539;49.476;8.484;2022-09-03T10:16:05;3.50;;;3.20;;
12947;SDS011;6539;49.476;8.484;2022-09-03T10:18:46;3.17;;;2.77;;
12947;SDS011;6539;49.476;8.484;2022-09-03T10:21:52;4.33;;;3.00;;
12947;SDS011;6539;49.476;8.484;2022-09-03T10:27:24;6.67;;;3.40;;
12947;SDS011;6539;49.476;8.484;2022-09-03T10:29:49;6.07;;;4.20;;
12947;SDS011;6539;49.476;8.484;2022-09-03T10:32:21;4.23;;;3.83;;
12947;SDS011;6539;49.476;8.484;2022-09-03T10:35:28;5.93;;;4.90;;
12947;SDS011;6539;49.476;8.484;2022-09-03T10:52:26;3.47;;;3.17;;
12947;SDS011;6539;49.476;8.484;2022-09-03T10:57:59;9.17;;;4.93;;
12947;SDS011;6539;49.476;8.484;2022-09-03T11:00:38;4.17;;;3.33;;
12947;SDS011;6539;49.476;8.484;2022-09-03T11:03:33;3.63;;;3.30;;
12947;SDS011;6539;49.476;8.484;2022-09-03T11:06:25;3.57;;;3.27;;
12947;SDS011;6539;49.476;8.484;2022-09-03T11:08:57;3.43;;;2.93;;
12947;SDS011;6539;49.476;8.484;2022-09-03T11:11:55;4.03;;;3.07;;
12947;SDS011;6539;49.476;8.484;2022-09-03T11:14:30;3.47;;;2.73;;
12947;SDS011;6539;49.476;8.484;2022-09-03T11:17:10;3.10;;;2.83;;
12947;SDS011;6539;49.476;8.484;2022-09-03T11:19:52;3.43;;;3.13;;
12947;SDS011;6539;49.476;8.484;2022-09-03T11:22:23;5.57;;;3.50;;
12947;SDS011;6539;49.476;8.484;2022-09-03T11:25:00;6.27;;;3.57;;
12947;SDS011;6539;49.476;8.484;2022-09-03T11:27:33;4.33;;;3.23;;
12947;SDS011;6539;49.476;8.484;2022-09-03T11:30:34;4.57;;;3.20;;
12947;SDS011;6539;49.476;8.484;2022-09-03T11:33:13;4.07;;;3.13;;
12947;SDS011;6539;49.476;8.484;2022-09-03T11:35:58;3.77;;;3.47;;
12947;SDS011;6539;49.476;8.484;2022-09-03T11:38:29;3.07;;;2.80;;
12947;SDS011;6539;49.476;8.484;2022-09-03T11:44:18;2.37;;;2.17;;
12947;SDS011;6539;49.476;8.484;2022-09-03T11:46:58;2.47;;;2.27;;
12947;SDS011;6539;49.476;8.484;2022-09-03T11:49:27;2.53;;;1.97;;
12947;SDS011;6539;49.476;8.484;2022-09-03T11:52:00;3.73;;;1.90;;
12947;SDS011;6539;49.476;8.484;2022-09-03T11:54:32;1.90;;;1.80;;
12947;SDS011;6539;49.476;8.484;2022-09-03T11:59:40;1.87;;;1.67;;
12947;SDS011;6539;49.476;8.484;2022-09-03T12:20:10;1.67;;;1.57;;
12947;SDS011;6539;49.476;8.484;2022-09-03T12:22:39;1.48;;;1.38;;
12947;SDS011;6539;49.476;8.484;2022-09-03T12:25:07;2.65;;;1.52;;
12947;SDS011;6539;49.476;8.484;2022-09-03T12:27:36;1.50;;;1.40;;
12947;SDS011;6539;49.476;8.484;2022-09-03T12:30:03;2.80;;;1.60;;
12947;SDS011;6539;49.476;8.484;2022-09-03T12:32:38;1.77;;;1.45;;
12947;SDS011;6539;49.476;8.484;2022-09-03T12:35:17;1.52;;;1.40;;
12947;SDS011;6539;49.476;8.484;2022-09-03T12:37:51;1.98;;;1.50;;
12947;SDS011;6539;49.476;8.484;2022-09-03T12:40:19;1.70;;;1.58;;
12947;SDS011;6539;49.476;8.484;2022-09-03T12:42:48;1.80;;;1.70;;
12947;SDS011;6539;49.476;8.484;2022-09-03T12:45:17;1.75;;;1.65;;
12947;SDS011;6539;49.476;8.484;2022-09-03T12:47:49;1.70;;;1.60;;
12947;SDS011;6539;49.476;8.484;2022-09-03T12:50:20;2.13;;;1.92;;
12947;SDS011;6539;49.476;8.484;2022-09-03T12:52:55;2.85;;;1.85;;
12947;SDS011;6539;49.476;8.484;2022-09-03T12:55:44;1.92;;;1.77;;
12947;SDS011;6539;49.476;8.484;2022-09-03T12:58:22;1.65;;;1.55;;
12947;SDS011;6539;49.476;8.484;2022-09-03T13:01:06;1.90;;;1.65;;
12947;SDS011;6539;49.476;8.484;2022-09-03T13:06:32;2.35;;;1.40;;
12947;SDS011;6539;49.476;8.484;2022-09-03T13:09:27;2.60;;;2.40;;
12947;SDS011;6539;49.476;8.484;2022-09-03T13:12:20;3.25;;;2.95;;
12947;SDS011;6539;49.476;8.484;2022-09-03T13:15:17;2.10;;;1.90;;
12947;SDS011;6539;49.476;8.484;2022-09-03T13:17:53;2.08;;;1.80;;
12947;SDS011;6539;49.476;8.484;2022-09-03T13:26:17;2.50;;;2.03;;
12947;SDS011;6539;49.476;8.484;2022-09-03T13:31:54;2.50;;;2.07;;
12947;SDS011;6539;49.476;8.484;2022-09-03T13:34:49;2.00;;;1.90;;
12947;SDS011;6539;49.476;8.484;2022-09-03T13:37:29;4.53;;;2.45;;
12947;SDS011;6539;49.476;8.484;2022-09-03T13:51:30;4.67;;;3.37;;
12947;SDS011;6539;49.476;8.484;2022-09-03T13:54:32;4.88;;;2.92;;
12947;SDS011;6539;49.476;8.484;2022-09-03T14:17:58;4.47;;;3.43;;
12947;SDS011;6539;49.476;8.484;2022-09-03T14:20:46;6.10;;;3.53;;
12947;SDS011;6539;49.476;8.484;2022-09-03T14:23:43;3.30;;;3.00;;
12947;SDS011;6539;49.476;8.484;2022-09-03T14:26:32;4.77;;;3.23;;
12947;SDS011;6539;49.476;8.484;2022-09-03T14:40:24;3.70;;;3.10;;
12947;SDS011;6539;49.476;8.484;2022-09-03T15:01:34;5.10;;;3.50;;
12947;SDS011;6539;49.476;8.484;2022-09-03T15:10:15;3.70;;;3.40;;
12947;SDS011;6539;49.476;8.484;2022-09-03T15:15:58;3.60;;;3.30;;
12947;SDS011;6539;49.476;8.484;2022-09-03T15:24:09;3.70;;;2.80;;
12947;SDS011;6539;49.476;8.484;2022-09-03T15:27:21;3.17;;;2.47;;
12947;SDS011;6539;49.476;8.484;2022-09-03T15:30:07;3.40;;;3.10;;
12947;SDS011;6539;49.476;8.484;2022-09-03T15:41:20;3.43;;;3.13;;
12947;SDS011;6539;49.476;8.484;2022-09-03T15:44:10;3.60;;;3.30;;
12947;SDS011;6539;49.476;8.484;2022-09-03T15:57:58;3.23;;;2.93;;
12947;SDS011;6539;49.476;8.484;2022-09-03T16:00:49;3.77;;;2.63;;
12947;SDS011;6539;49.476;8.484;2022-09-03T16:04:10;3.80;;;2.80;;
12947;SDS011;6539;49.476;8.484;2022-09-03T16:09:26;2.80;;;2.60;;
12947;SDS011;6539;49.476;8.484;2022-09-03T16:12:20;2.70;;;2.50;;
12947;SDS011;6539;49.476;8.484;2022-09-03T16:20:35;3.23;;;2.60;;
12947;SDS011;6539;49.476;8.484;2022-09-03T16:25:56;3.10;;;2.80;;
12947;SDS011;6539;49.476;8.484;2022-09-03T16:28:33;2.90;;;2.60;;
12947;SDS011;6539;49.476;8.484;2022-09-03T16:31:33;2.80;;;2.53;;
12947;SDS011;6539;49.476;8.484;2022-09-03T16:46:25;4.00;;;3.30;;
12947;SDS011;6539;49.476;8.484;2022-09-03T16:49:40;3.43;;;2.97;;
12947;SDS011;6539;49.476;8.484;2022-09-03T17:09:49;7.87;;;5.13;;
12947;SDS011;6539;49.476;8.484;2022-09-03T17:26:33;3.90;;;3.40;;
12947;SDS011;6539;49.476;8.484;2022-09-03T17:29:31;3.47;;;3.17;;
12947;SDS011;6539;49.476;8.484;2022-09-03T17:35:45;7.03;;;3.43;;
12947;SDS011;6539;49.476;8.484;2022-09-03T17:49:50;6.50;;;3.50;;
12947;SDS011;6539;49.476;8.484;2022-09-03T17:52:37;4.60;;;3.00;;
12947;SDS011;6539;49.476;8.484;2022-09-03T17:58:27;4.70;;;3.90;;
12947;SDS011;6539;49.476;8.484;2022-09-03T18:01:18;10.50;;;6.00;;
12947;SDS011;6539;49.476;8.484;2022-09-03T18:06:31;4.47;;;3.83;;
12947;SDS011;6539;49.476;8.484;2022-09-03T18:09:54;4.70;;;4.10;;
12947;SDS011;6539;49.476;8.484;2022-09-03T18:12:26;5.93;;;3.77;;
12947;SDS011;6539;49.476;8.484;2022-09-03T18:15:13;5.20;;;3.97;;
12947;SDS011;6539;49.476;8.484;2022-09-03T18:18:09;7.33;;;5.10;;
12947;SDS011;6539;49.476;8.484;2022-09-03T18:20:51;4.73;;;4.33;;
12947;SDS011;6539;49.476;8.484;2022-09-03T18:26:43;4.20;;;3.80;;
12947;SDS011;6539;49.476;8.484;2022-09-03T18:32:52;5.93;;;4.33;;
12947;SDS011;6539;49.476;8.484;2022-09-03T18:35:42;4.80;;;4.30;;
12947;SDS011;6539;49.476;8.484;2022-09-03T18:38:32;4.77;;;4.37;;
12947;SDS011;6539;49.476;8.484;2022-09-03T19:01:48;6.33;;;4.73;;
12947;SDS011;6539;49.476;8.484;2022-09-03T19:05:00;6.33;;;5.43;;
12947;SDS011;6539;49.476;8.484;2022-09-03T19:11:27;5.47;;;4.93;;
12947;SDS011;6539;49.476;8.484;2022-09-03T19:14:31;5.97;;;5.20;;
12947;SDS011;6539;49.476;8.484;2022-09-03T19:24:10;5.80;;;5.20;;
12947;SDS011;6539;49.476;8.484;2022-09-03T19:27:06;5.83;;;5.23;;
12947;SDS011;6539;49.476;8.484;2022-09-03T19:30:15;6.07;;;5.50;;
12947;SDS011;6539;49.476;8.484;2022-09-03T19:47:20;7.30;;;6.60;;
12947;SDS011;6539;49.476;8.484;2022-09-03T19:50:37;7.97;;;7.17;;
12947;SDS011;6539;49.476;8.484;2022-09-03T19:53:43;7.33;;;6.33;;
12947;SDS011;6539;49.476;8.484;2022-09-03T19:56:33;7.60;;;6.90;;
12947;SDS011;6539;49.476;8.484;2022-09-03T19:59:21;7.60;;;6.63;;
12947;SDS011;6539;49.476;8.484;2022-09-03T20:02:12;7.43;;;6.73;;
12947;SDS011;6539;49.476;8.484;2022-09-03T20:04:57;7.17;;;6.57;;
12947;SDS011;6539;49.476;8.484;2022-09-03T20:07:48;7.23;;;6.53;;
12947;SDS011;6539;49.476;8.484;2022-09-03T20:10:38;7.03;;;6.33;;
12947;SDS011;6539;49.476;8.484;2022-09-03T20:13:16;10.50;;;6.53;;
12947;SDS011;6539;49.476;8.484;2022-09-03T20:27:59;7.03;;;6.43;;
12947;SDS011;6539;49.476;8.484;2022-09-03T20:30:45;7.87;;;6.97;;
12947;SDS011;6539;49.476;8.484;2022-09-03T20:56:12;7.73;;;6.77;;
12947;SDS011;6539;49.476;8.484;2022-09-03T20:59:02;8.97;;;7.60;;
12947;SDS011;6539;49.476;8.484;2022-09-03T21:13:25;11.80;;;10.67;;
12947;SDS011;6539;49.476;8.484;2022-09-03T21:25:04;18.57;;;14.97;;
12947;SDS011;6539;49.476;8.484;2022-09-03T21:27:42;18.00;;;14.37;;
12947;SDS011;6539;49.476;8.484;2022-09-03T21:30:19;10.37;;;8.70;;
12947;SDS011;6539;49.476;8.484;2022-09-03T21:32:53;8.00;;;7.20;;
12947;SDS011;6539;49.476;8.484;2022-09-03T21:35:46;8.40;;;7.43;;
12947;SDS011;6539;49.476;8.484;2022-09-03T21:38:21;7.33;;;6.63;;
12947;SDS011;6539;49.476;8.484;2022-09-03T21:55:45;7.10;;;6.40;;
12947;SDS011;6539;49.476;8.484;2022-09-03T21:58:21;8.13;;;6.07;;
12947;SDS011;6539;49.476;8.484;2022-09-03T22:01:06;8.00;;;5.83;;
12947;SDS011;6539;49.476;8.484;2022-09-03T22:03:50;6.33;;;5.70;;
12947;SDS011;6539;49.476;8.484;2022-09-03T22:06:19;6.53;;;5.87;;
12947;SDS011;6539;49.476;8.484;2022-09-03T22:09:03;6.20;;;5.70;;
12947;SDS011;6539;49.476;8.484;2022-09-03T22:14:20;9.90;;;8.10;;
12947;SDS011;6539;49.476;8.484;2022-09-03T22:16:53;8.70;;;7.73;;
12947;SDS011;6539;49.476;8.484;2022-09-03T22:19:42;7.27;;;6.47;;
12947;SDS011;6539;49.476;8.484;2022-09-03T22:22:18;8.67;;;7.37;;
12947;SDS011;6539;49.476;8.484;2022-09-03T22:25:08;9.00;;;7.10;;
12947;SDS011;6539;49.476;8.484;2022-09-03T22:27:49;7.80;;;6.87;;
12947;SDS011;6539;49.476;8.484;2022-09-03T22:30:36;8.57;;;7.60;;
12947;SDS011;6539;49.476;8.484;2022-09-03T22:33:31;8.60;;;7.27;;
12947;SDS011;6539;49.476;8.484;2022-09-03T22:36:20;7.90;;;7.03;;
12947;SDS011;6539;49.476;8.484;2022-09-03T22:42:22;10.23;;;7.33;;
12947;SDS011;6539;49.476;8.484;2022-09-03T22:53:22;9.43;;;7.70;;
12947;SDS011;6539;49.476;8.484;2022-09-03T22:56:15;8.83;;;7.80;;
12947;SDS011;6539;49.476;8.484;2022-09-03T23:01:47;9.17;;;7.53;;
12947;SDS011;6539;49.476;8.484;2022-09-03T23:04:50;8.47;;;7.57;;
12947;SDS011;6539;49.476;8.484;2022-09-03T23:10:20;8.03;;;7.23;;
12947;SDS011;6539;49.476;8.484;2022-09-03T23:13:07;8.33;;;7.63;;
12947;SDS011;6539;49.476;8.484;2022-09-03T23:15:40;8.67;;;7.43;;
12947;SDS011;6539;49.476;8.484;2022-09-03T23:18:11;8.43;;;7.63;;
12947;SDS011;6539;49.476;8.484;2022-09-03T23:20:45;7.83;;;6.63;;
12947;SDS011;6539;49.476;8.484;2022-09-03T23:23:22;8.40;;;7.60;;
12947;SDS011;6539;49.476;8.484;2022-09-03T23:31:48;8.83;;;8.03;;
12947;SDS011;6539;49.476;8.484;2022-09-03T23:34:15;9.17;;;7.60;;
12947;SDS011;6539;49.476;8.484;2022-09-03T23:51:40;8.07;;;7.27;;
